Terminal Aerodrome Forecast
Issued by NWS

Home | Current Version | Previous Version | Text Only | Print | Product List | Glossary Off
Versions: 1 2 3 4 5 6 7 8 9 10 11 12 13 14 15 16 17 18 19 20 21 22

890
FTUS43 KICT 211117 AAB
TAFCNU
TAF AMD
KCNU 211117Z 2111/2206 02017KT P6SM BKN015
     FM211500 03017KT P6SM SCT020 OVC080
     FM212100 06017KT P6SM OVC035
     FM220000 05017KT P6SM SCT013 OVC022
     FM220200 05013KT 4SM FZRAPL OVC007=

USA.gov is the U.S. government's official web portal to all federal, state and local government web resources and services.